Time;durP1;ratioP1;P1;durP2;ratioP2;P2;SDS_P1;SDS_P2;PMS_P1;PMS_P2;Temp;Humidity;BMP_temperature;BMP_pressure;BME280_temperature;BME280_humidity;BME280_pressure;Samples;Min_cycle;Max_cycle;Signal;HPM_P1;HPM_P2
2021/10/21 00:01:00;;;;;;;14.27;10.02;;;15.10;99.90;;;;;;5069976;28;20036;-87
2021/10/21 00:03:25;;;;;;;14.32;9.65;;;15.20;99.90;;;;;;5072063;28;20012;-84
2021/10/21 00:05:51;;;;;;;10.93;9.43;;;15.20;99.90;;;;;;5052918;28;20075;-82
2021/10/21 00:08:17;;;;;;;14.93;10.18;;;15.20;99.90;;;;;;5053875;28;20032;-83
2021/10/21 00:10:45;;;;;;;10.38;9.25;;;15.20;99.90;;;;;;5054336;28;20056;-86
2021/10/21 00:13:11;;;;;;;12.27;9.90;;;15.30;99.90;;;;;;5052724;28;20044;-86
2021/10/21 00:15:37;;;;;;;13.65;9.70;;;15.30;99.90;;;;;;5072246;28;20020;-86
2021/10/21 00:18:04;;;;;;;12.68;9.90;;;15.30;99.90;;;;;;5071676;28;20462;-87
2021/10/21 00:20:30;;;;;;;12.98;10.15;;;15.30;99.90;;;;;;5074663;28;20024;-84
2021/10/21 00:22:56;;;;;;;12.07;9.68;;;15.30;99.90;;;;;;5082001;28;20031;-87
2021/10/21 00:25:22;;;;;;;12.18;9.60;;;15.40;99.90;;;;;;5075619;28;20028;-88
2021/10/21 00:27:48;;;;;;;13.02;9.57;;;15.40;99.90;;;;;;5058620;28;20032;-89
2021/10/21 00:30:14;;;;;;;13.70;9.32;;;15.40;99.90;;;;;;5075313;28;20036;-86
2021/10/21 00:32:42;;;;;;;11.70;9.52;;;15.40;99.90;;;;;;5058401;28;20451;-87
2021/10/21 00:35:08;;;;;;;13.35;9.13;;;15.40;99.90;;;;;;5075407;28;20471;-87
2021/10/21 00:37:34;;;;;;;10.68;8.52;;;15.40;99.90;;;;;;5057566;28;20032;-87
2021/10/21 00:40:00;;;;;;;13.43;8.77;;;15.50;99.90;;;;;;5074759;28;20048;-87
2021/10/21 00:42:26;;;;;;;13.35;8.10;;;15.50;99.90;;;;;;5074207;28;20078;-87
2021/10/21 00:44:51;;;;;;;12.32;8.20;;;15.50;99.90;;;;;;5056658;28;20031;-87
2021/10/21 00:47:17;;;;;;;9.60;8.55;;;15.50;99.90;;;;;;5075888;28;20537;-87
2021/10/21 00:49:43;;;;;;;17.10;8.50;;;15.50;99.90;;;;;;5074706;28;20032;-83
2021/10/21 00:52:09;;;;;;;11.43;8.70;;;15.50;99.90;;;;;;5057280;28;20028;-87
2021/10/21 00:54:36;;;;;;;10.07;8.70;;;15.40;99.90;;;;;;5075246;28;20023;-88
2021/10/21 00:57:04;;;;;;;12.48;8.18;;;15.40;99.90;;;;;;5076142;28;20563;-88
2021/10/21 00:59:31;;;;;;;9.30;7.47;;;15.50;99.90;;;;;;5056897;28;20035;-89
2021/10/21 01:01:57;;;;;;;9.57;7.63;;;15.40;99.90;;;;;;5075726;28;20017;-87
2021/10/21 01:04:23;;;;;;;11.75;7.53;;;15.40;99.90;;;;;;5075540;28;20481;-89
2021/10/21 01:06:49;;;;;;;9.57;7.78;;;15.40;99.90;;;;;;5058398;28;20506;-89
2021/10/21 01:09:16;;;;;;;12.50;7.22;;;15.40;99.90;;;;;;5058363;28;20058;-89
2021/10/21 01:11:42;;;;;;;12.05;8.15;;;15.40;99.90;;;;;;5058368;28;20027;-89
2021/10/21 01:14:09;;;;;;;13.68;7.85;;;15.40;99.90;;;;;;5058044;28;20021;-89
2021/10/21 01:16:39;;;;;;;12.82;7.60;;;15.30;99.90;;;;;;5075655;28;20039;-87
2021/10/21 01:19:14;;;;;;;11.73;7.15;;;15.40;99.90;;;;;;5069760;28;20108;-89
2021/10/21 01:21:42;;;;;;;9.63;7.32;;;15.40;99.90;;;;;;5075669;28;20021;-89
2021/10/21 01:24:07;;;;;;;9.88;7.63;;;15.30;99.90;;;;;;5075253;28;20387;-88
2021/10/21 01:26:33;;;;;;;15.35;7.53;;;15.30;99.90;;;;;;5057663;28;20033;-87
2021/10/21 01:28:59;;;;;;;9.23;7.30;;;15.30;99.90;;;;;;5075091;28;20028;-87
2021/10/21 01:31:24;;;;;;;10.07;7.00;;;15.30;99.90;;;;;;5075401;28;20025;-88
2021/10/21 01:33:50;;;;;;;14.57;7.72;;;15.30;99.90;;;;;;5074835;28;20017;-87
2021/10/21 01:36:16;;;;;;;10.93;7.15;;;15.20;99.90;;;;;;5075048;28;20442;-88
2021/10/21 01:38:42;;;;;;;11.00;7.40;;;15.10;99.90;;;;;;5074799;28;20048;-88
2021/10/21 01:41:08;;;;;;;11.40;7.35;;;15.10;99.90;;;;;;5074094;28;20044;-87
2021/10/21 01:43:41;;;;;;;12.55;6.97;;;15.10;99.90;;;;;;5089067;28;20012;-88
2021/10/21 01:46:08;;;;;;;10.00;6.65;;;15.10;99.90;;;;;;5074889;28;20062;-87
2021/10/21 01:48:34;;;;;;;9.93;7.13;;;15.10;99.90;;;;;;5075169;28;20056;-87
2021/10/21 01:51:00;;;;;;;10.90;7.90;;;15.10;99.90;;;;;;5074620;28;20579;-86
2021/10/21 01:53:25;;;;;;;10.05;7.65;;;15.10;99.90;;;;;;5074111;28;20024;-86
2021/10/21 01:55:51;;;;;;;9.65;7.57;;;15.10;99.90;;;;;;5074063;28;20070;-86
2021/10/21 01:58:16;;;;;;;9.35;6.47;;;15.00;99.90;;;;;;5074603;28;20032;-87
2021/10/21 02:00:42;;;;;;;11.00;6.72;;;15.00;99.90;;;;;;5074093;28;20030;-87
2021/10/21 02:03:08;;;;;;;9.77;7.00;;;15.00;99.90;;;;;;5074626;28;20450;-85
2021/10/21 02:05:33;;;;;;;12.15;7.13;;;15.00;99.90;;;;;;5073973;28;20536;-86
2021/10/21 02:07:59;;;;;;;11.70;6.85;;;14.90;99.90;;;;;;5074755;28;20031;-89
2021/10/21 02:10:25;;;;;;;12.55;6.93;;;14.80;99.90;;;;;;5074661;28;20017;-86
2021/10/21 02:12:51;;;;;;;10.73;6.85;;;14.80;99.90;;;;;;5074453;28;20067;-87
2021/10/21 02:15:17;;;;;;;12.88;6.50;;;14.70;99.90;;;;;;5074158;28;20033;-88
2021/10/21 02:17:45;;;;;;;9.85;5.97;;;14.70;99.90;;;;;;5056521;28;20043;-86
2021/10/21 02:20:12;;;;;;;7.80;5.63;;;14.70;99.90;;;;;;5073967;28;20020;-86
2021/10/21 02:22:39;;;;;;;10.77;6.78;;;14.70;99.90;;;;;;5073886;28;20028;-86
2021/10/21 02:25:07;;;;;;;9.98;5.80;;;14.80;99.90;;;;;;5073841;28;20059;-88
2021/10/21 02:27:33;;;;;;;11.63;6.65;;;14.90;99.90;;;;;;5074034;28;20077;-87
2021/10/21 02:29:59;;;;;;;8.25;5.82;;;15.00;99.90;;;;;;5069604;28;20091;-86
2021/10/21 02:32:25;;;;;;;11.75;6.00;;;14.90;99.90;;;;;;5073508;28;20024;-86
2021/10/21 02:34:50;;;;;;;9.15;5.85;;;14.90;99.90;;;;;;5073260;28;20020;-86
2021/10/21 02:37:16;;;;;;;8.00;5.93;;;14.90;99.90;;;;;;5073518;28;20033;-86
2021/10/21 02:39:42;;;;;;;14.55;5.90;;;14.80;99.90;;;;;;5073152;28;20076;-86
2021/10/21 02:42:07;;;;;;;11.52;6.28;;;14.70;99.90;;;;;;5072637;28;20024;-85
2021/10/21 02:44:33;;;;;;;17.92;6.85;;;14.70;99.90;;;;;;5072523;28;20021;-85
2021/10/21 02:46:59;;;;;;;16.50;7.00;;;14.60;99.90;;;;;;5073470;28;20834;-88
2021/10/21 02:49:24;;;;;;;11.25;6.88;;;14.60;99.90;;;;;;5073581;28;20020;-87
2021/10/21 02:51:50;;;;;;;15.15;6.75;;;14.60;99.90;;;;;;5074128;28;20057;-88
2021/10/21 02:54:18;;;;;;;12.18;7.13;;;14.70;99.90;;;;;;5073268;28;20066;-87
2021/10/21 02:56:43;;;;;;;9.50;7.00;;;14.60;99.90;;;;;;5073216;28;20024;-86
2021/10/21 02:59:09;;;;;;;11.30;7.45;;;14.50;99.90;;;;;;5070206;28;20391;-87
2021/10/21 03:01:35;;;;;;;12.90;7.25;;;14.50;99.90;;;;;;5066887;28;20115;-87
2021/10/21 03:04:01;;;;;;;11.65;7.40;;;14.40;99.90;;;;;;5072956;28;20052;-87
2021/10/21 03:06:27;;;;;;;14.60;7.70;;;14.60;99.90;;;;;;5073258;28;20055;-86
2021/10/21 03:08:52;;;;;;;10.55;7.05;;;14.70;99.90;;;;;;5073215;28;20021;-87
2021/10/21 03:11:18;;;;;;;9.32;6.68;;;14.70;99.90;;;;;;5073341;28;20028;-87
2021/10/21 03:13:43;;;;;;;11.02;7.45;;;14.70;99.90;;;;;;5072490;28;20035;-86
2021/10/21 03:16:09;;;;;;;10.63;7.55;;;14.70;99.90;;;;;;5055069;28;20055;-86
2021/10/21 03:18:35;;;;;;;12.13;7.20;;;14.70;99.90;;;;;;5054976;28;20118;-87
2021/10/21 03:21:00;;;;;;;11.00;7.22;;;14.70;99.90;;;;;;5073292;28;20112;-88
2021/10/21 03:23:26;;;;;;;10.02;7.40;;;14.70;99.90;;;;;;5055255;28;20078;-86
2021/10/21 03:25:54;;;;;;;15.55;7.47;;;14.70;99.90;;;;;;5058082;28;20055;-85
2021/10/21 03:28:20;;;;;;;13.25;7.93;;;14.70;99.90;;;;;;5070890;28;20071;-85
2021/10/21 03:30:46;;;;;;;10.45;7.75;;;14.70;99.90;;;;;;5071122;28;20016;-85
2021/10/21 03:33:12;;;;;;;16.55;7.47;;;14.70;99.90;;;;;;5088011;28;20048;-86
2021/10/21 03:35:38;;;;;;;12.38;7.38;;;14.60;99.90;;;;;;5072721;28;20092;-86
2021/10/21 03:38:04;;;;;;;12.20;7.10;;;14.60;99.90;;;;;;5072532;28;20023;-87
2021/10/21 03:40:30;;;;;;;11.70;6.93;;;14.60;99.90;;;;;;5072223;28;20032;-86
2021/10/21 03:42:56;;;;;;;10.40;7.80;;;14.50;99.90;;;;;;5054015;28;20474;-85
2021/10/21 03:45:22;;;;;;;15.00;8.02;;;14.50;99.90;;;;;;5071365;28;20032;-86
2021/10/21 03:47:47;;;;;;;12.77;7.63;;;14.40;99.90;;;;;;5053696;28;20028;-86
2021/10/21 03:50:13;;;;;;;11.88;7.18;;;14.40;99.90;;;;;;5053890;28;20021;-88
2021/10/21 03:52:39;;;;;;;11.02;7.15;;;14.40;99.90;;;;;;5071816;28;20092;-87
2021/10/21 03:55:06;;;;;;;10.90;7.57;;;14.30;99.90;;;;;;5074635;28;20013;-86
2021/10/21 03:57:31;;;;;;;14.00;7.30;;;14.30;99.90;;;;;;5057488;28;20032;-87
2021/10/21 03:59:57;;;;;;;17.10;7.38;;;14.30;99.90;;;;;;5074658;28;20020;-86
2021/10/21 04:02:23;;;;;;;11.48;8.00;;;14.20;99.90;;;;;;5074712;28;20024;-86
2021/10/21 04:04:48;;;;;;;15.45;8.63;;;14.10;99.90;;;;;;5074588;28;20029;-85
2021/10/21 04:07:14;;;;;;;11.30;7.95;;;14.10;99.90;;;;;;5074914;28;20505;-86
2021/10/21 04:09:40;;;;;;;13.38;8.18;;;14.10;99.90;;;;;;5056671;28;20020;-85
2021/10/21 04:12:06;;;;;;;11.73;8.05;;;14.00;99.90;;;;;;5074990;28;20479;-86
2021/10/21 04:14:31;;;;;;;14.15;8.48;;;13.90;99.90;;;;;;5074223;28;20501;-86
2021/10/21 04:16:57;;;;;;;11.07;8.55;;;13.90;99.90;;;;;;5074664;28;20055;-86
2021/10/21 04:19:23;;;;;;;11.55;8.05;;;13.90;99.90;;;;;;5056751;28;20052;-87
2021/10/21 04:21:49;;;;;;;14.70;8.50;;;13.80;99.90;;;;;;5074710;28;20102;-86
2021/10/21 04:24:14;;;;;;;10.43;8.63;;;13.70;99.90;;;;;;5073481;28;20032;-85
2021/10/21 04:26:40;;;;;;;10.95;9.45;;;13.60;99.90;;;;;;5071615;28;20028;-85
2021/10/21 04:29:06;;;;;;;12.40;8.77;;;13.60;99.90;;;;;;5055898;28;20020;-86
2021/10/21 04:31:31;;;;;;;15.38;9.25;;;13.50;99.90;;;;;;5074335;28;20024;-85
2021/10/21 04:33:58;;;;;;;17.17;9.75;;;13.40;99.90;;;;;;5074065;28;20618;-86
2021/10/21 04:36:23;;;;;;;13.27;8.73;;;13.40;99.90;;;;;;5074332;28;20031;-86
2021/10/21 04:38:49;;;;;;;10.77;8.23;;;13.50;99.90;;;;;;5027672;28;1292943;-86
2021/10/21 04:41:15;;;;;;;14.80;9.27;;;13.50;99.90;;;;;;5057878;28;20048;-86
2021/10/21 04:43:41;;;;;;;20.27;8.82;;;13.60;99.90;;;;;;5057454;28;20043;-85
2021/10/21 04:46:07;;;;;;;13.25;8.88;;;13.60;99.90;;;;;;5056584;28;20040;-86
2021/10/21 04:48:32;;;;;;;12.30;9.15;;;13.70;99.90;;;;;;5075587;28;20028;-85
2021/10/21 04:50:58;;;;;;;22.35;9.45;;;13.80;99.90;;;;;;5084044;28;20051;-85
2021/10/21 04:53:24;;;;;;;16.85;8.68;;;13.80;99.90;;;;;;5057889;28;20086;-84
2021/10/21 04:55:49;;;;;;;12.07;8.60;;;14.00;99.90;;;;;;5057255;28;20020;-84
2021/10/21 04:58:15;;;;;;;15.30;8.35;;;14.10;99.90;;;;;;5075316;28;20032;-87
2021/10/21 05:00:41;;;;;;;11.23;7.82;;;14.10;99.90;;;;;;5075169;28;20025;-85
2021/10/21 05:03:12;;;;;;;11.13;7.70;;;14.20;99.90;;;;;;5056775;28;20017;-85
2021/10/21 05:05:40;;;;;;;11.05;7.32;;;14.30;99.90;;;;;;5059328;28;20119;-83
2021/10/21 05:08:06;;;;;;;9.68;7.40;;;14.30;99.90;;;;;;5074073;28;20028;-84
2021/10/21 05:10:32;;;;;;;9.90;7.72;;;14.30;99.90;;;;;;5074190;28;20017;-85
2021/10/21 05:12:57;;;;;;;12.43;7.40;;;14.40;99.90;;;;;;5053823;28;20562;-85
2021/10/21 05:15:23;;;;;;;12.85;7.18;;;14.40;99.90;;;;;;5077184;28;20693;-86
2021/10/21 05:17:50;;;;;;;12.70;7.57;;;14.40;99.90;;;;;;5054885;28;20158;-93
2021/10/21 05:20:17;;;;;;;14.68;7.03;;;14.50;99.90;;;;;;5077467;28;20107;-90
2021/10/21 05:22:42;;;;;;;11.05;6.93;;;14.50;99.90;;;;;;5076338;28;20021;-90
2021/10/21 05:25:08;;;;;;;9.52;6.70;;;14.60;99.90;;;;;;5075156;28;20027;-91
2021/10/21 05:27:38;;;;;;;14.00;6.90;;;14.60;99.90;;;;;;5056542;28;20454;-80
2021/10/21 05:30:08;;;;;;;11.23;6.57;;;14.70;99.90;;;;;;5072161;28;20136;-80
2021/10/21 05:32:34;;;;;;;11.50;6.70;;;14.80;99.90;;;;;;5071823;28;20047;-83
2021/10/21 05:35:00;;;;;;;9.38;6.40;;;14.80;99.90;;;;;;5074791;28;20052;-89
2021/10/21 05:37:26;;;;;;;11.10;6.15;;;14.80;99.90;;;;;;5057969;28;20106;-93
2021/10/21 05:39:54;;;;;;;12.27;6.18;;;14.80;99.90;;;;;;5082797;28;20530;-86
2021/10/21 05:42:20;;;;;;;11.30;5.90;;;14.90;99.90;;;;;;5088326;28;20020;-85
2021/10/21 05:44:46;;;;;;;13.07;6.18;;;14.90;99.90;;;;;;5059181;28;20097;-88
2021/10/21 05:47:11;;;;;;;13.02;5.97;;;14.90;99.90;;;;;;5083078;28;20036;-88
2021/10/21 05:49:37;;;;;;;9.68;6.68;;;14.90;99.90;;;;;;5080278;28;20017;-89
2021/10/21 05:52:03;;;;;;;12.48;5.75;;;14.90;99.90;;;;;;5076518;28;20029;-91
2021/10/21 05:54:29;;;;;;;13.73;6.07;;;14.90;99.90;;;;;;5059583;28;20031;-95
2021/10/21 05:56:55;;;;;;;22.35;6.45;;;15.00;99.90;;;;;;5081680;28;20052;-95
2021/10/21 05:59:21;;;;;;;12.50;6.53;;;15.00;99.90;;;;;;5079168;28;20025;-89
2021/10/21 06:01:47;;;;;;;11.13;5.72;;;15.00;99.90;;;;;;5077619;28;20025;-87
2021/10/21 06:04:12;;;;;;;10.50;5.43;;;15.00;99.90;;;;;;5061485;28;20068;-93
2021/10/21 06:06:38;;;;;;;12.32;5.75;;;15.00;99.90;;;;;;5064376;28;20132;-94
2021/10/21 06:09:04;;;;;;;8.60;5.70;;;15.00;99.90;;;;;;5084737;28;20048;-93
2021/10/21 06:11:31;;;;;;;10.63;5.45;;;15.00;99.90;;;;;;5066774;28;20477;-94
2021/10/21 06:13:58;;;;;;;11.43;5.85;;;15.10;99.90;;;;;;5064876;28;20020;-94
2021/10/21 06:16:23;;;;;;;7.32;5.20;;;15.20;99.90;;;;;;5082595;28;20062;-94
2021/10/21 06:18:49;;;;;;;11.75;5.43;;;15.20;99.90;;;;;;5063149;28;20025;-95
2021/10/21 06:21:21;;;;;;;12.45;5.32;;;15.20;99.90;;;;;;5061802;28;20024;-94
2021/10/21 06:23:47;;;;;;;10.75;4.63;;;15.30;99.90;;;;;;5077800;28;20024;-94
2021/10/21 06:26:13;;;;;;;13.90;5.20;;;15.40;99.90;;;;;;5063161;28;20044;-93
2021/10/21 06:28:40;;;;;;;22.85;5.30;;;15.40;99.90;;;;;;5081214;28;20081;-93
2021/10/21 06:31:06;;;;;;;20.48;8.73;;;15.40;99.90;;;;;;5063608;28;20035;-94
2021/10/21 06:33:31;;;;;;;130.25;37.15;;;15.50;99.90;;;;;;5067824;28;20076;-95
2021/10/21 06:35:57;;;;;;;26.80;8.77;;;15.50;99.90;;;;;;5064647;28;20071;-93
2021/10/21 06:38:23;;;;;;;9.40;5.15;;;15.50;99.90;;;;;;5084767;28;20195;-93
2021/10/21 06:40:49;;;;;;;20.33;5.60;;;15.60;99.90;;;;;;5071338;28;20023;-96
2021/10/21 06:43:14;;;;;;;17.55;5.18;;;15.60;99.90;;;;;;5152119;23;20051;-95
2021/10/21 06:45:40;;;;;;;11.18;5.30;;;15.70;99.90;;;;;;5084142;28;20116;-94
2021/10/21 06:48:06;;;;;;;12.30;5.47;;;15.80;99.90;;;;;;5061291;28;20029;-95
2021/10/21 06:50:32;;;;;;;12.73;5.18;;;15.80;99.90;;;;;;5085901;28;20020;-94
2021/10/21 06:52:58;;;;;;;15.20;5.22;;;15.80;99.90;;;;;;5065267;28;20021;-95
2021/10/21 06:55:23;;;;;;;20.67;5.90;;;15.80;99.90;;;;;;5073771;28;20048;-95
2021/10/21 06:57:51;;;;;;;19.67;5.00;;;15.80;99.90;;;;;;5069461;28;20024;-96
2021/10/21 07:00:18;;;;;;;16.63;5.22;;;15.80;99.90;;;;;;5061218;28;20475;-94
2021/10/21 07:02:44;;;;;;;12.35;5.05;;;15.80;99.90;;;;;;5084472;28;20041;-93
2021/10/21 07:05:12;;;;;;;14.93;5.72;;;15.90;99.90;;;;;;5082593;28;20624;-93
2021/10/21 07:07:38;;;;;;;11.68;5.00;;;15.90;99.90;;;;;;5084974;28;20103;-94
2021/10/21 07:10:08;;;;;;;13.02;5.20;;;15.90;99.90;;;;;;5061858;28;20021;-93
2021/10/21 07:12:38;;;;;;;13.60;5.43;;;16.00;99.90;;;;;;5068580;28;20084;-94
2021/10/21 07:15:07;;;;;;;20.15;5.53;;;16.00;99.90;;;;;;5067248;28;20024;-94
2021/10/21 07:17:33;;;;;;;13.88;5.80;;;16.00;99.90;;;;;;5106722;28;20024;-95
2021/10/21 07:19:59;;;;;;;13.60;4.57;;;16.00;99.90;;;;;;5098763;28;20028;-93
2021/10/21 07:22:25;;;;;;;11.82;5.18;;;16.10;99.90;;;;;;5103899;28;20032;-91
2021/10/21 07:24:50;;;;;;;11.95;5.07;;;16.20;99.90;;;;;;5102335;28;20051;-92
2021/10/21 07:27:17;;;;;;;15.93;5.13;;;16.20;99.90;;;;;;5090617;28;20034;-91
2021/10/21 07:29:43;;;;;;;16.30;4.97;;;16.30;99.90;;;;;;5109917;28;20081;-95
2021/10/21 07:32:08;;;;;;;11.82;5.40;;;16.40;99.90;;;;;;5092390;28;20052;-92
2021/10/21 07:34:36;;;;;;;11.60;4.47;;;16.40;99.90;;;;;;5108905;28;20050;-93
2021/10/21 07:37:02;;;;;;;11.15;4.88;;;16.40;99.90;;;;;;5091073;28;20563;-94
2021/10/21 07:39:34;;;;;;;9.55;4.80;;;16.40;99.90;;;;;;5113917;28;19996;-95
2021/10/21 07:42:02;;;;;;;7.85;4.50;;;16.40;99.90;;;;;;5114587;28;20016;-95
2021/10/21 07:44:31;;;;;;;18.15;5.28;;;16.50;99.90;;;;;;5134475;23;20063;-96
2021/10/21 07:46:58;;;;;;;10.63;4.93;;;16.50;99.90;;;;;;5092055;28;20047;-95
2021/10/21 07:49:24;;;;;;;13.63;5.38;;;16.50;99.90;;;;;;5072755;28;20108;-92
2021/10/21 07:51:50;;;;;;;11.93;4.60;;;16.60;99.90;;;;;;5090816;28;20028;-95
2021/10/21 07:54:15;;;;;;;9.77;4.53;;;16.60;99.90;;;;;;5080758;28;20094;-93
2021/10/21 07:56:41;;;;;;;8.82;4.72;;;16.60;99.90;;;;;;5062123;28;20470;-91
2021/10/21 07:59:07;;;;;;;16.30;4.40;;;16.60;99.90;;;;;;5083854;28;20067;-91
2021/10/21 08:01:33;;;;;;;20.58;5.30;;;16.70;99.90;;;;;;5073464;28;20021;-88
2021/10/21 08:03:59;;;;;;;9.40;4.63;;;16.70;99.90;;;;;;5075447;28;20020;-90
2021/10/21 08:06:28;;;;;;;11.77;4.43;;;16.70;99.90;;;;;;5076298;28;20041;-83
2021/10/21 08:08:56;;;;;;;17.60;5.05;;;16.70;99.90;;;;;;5063283;28;20101;-86
2021/10/21 08:11:21;;;;;;;13.98;4.63;;;16.70;99.90;;;;;;5073196;28;20017;-84
2021/10/21 08:13:47;;;;;;;13.38;4.40;;;16.70;99.90;;;;;;5059596;28;20470;-84
2021/10/21 08:16:12;;;;;;;10.23;4.90;;;16.70;99.90;;;;;;5074526;28;20075;-84
2021/10/21 08:18:38;;;;;;;10.73;5.32;;;16.70;99.90;;;;;;5096282;28;20012;-90
2021/10/21 08:21:04;;;;;;;11.60;4.28;;;16.70;99.90;;;;;;5105838;28;20110;-91
2021/10/21 08:23:29;;;;;;;7.57;4.22;;;16.70;99.90;;;;;;5114217;28;20023;-94
2021/10/21 08:25:55;;;;;;;13.18;5.20;;;16.80;99.90;;;;;;5080465;28;20032;-91
2021/10/21 08:28:21;;;;;;;11.25;4.28;;;16.80;99.90;;;;;;5076146;28;20130;-90
2021/10/21 08:30:47;;;;;;;11.82;4.70;;;16.80;99.90;;;;;;5094558;28;20024;-95
2021/10/21 08:33:14;;;;;;;17.98;4.47;;;16.80;99.90;;;;;;5097117;28;20474;-93
2021/10/21 08:35:39;;;;;;;11.40;4.20;;;16.90;99.90;;;;;;5101687;28;20024;-90
2021/10/21 08:38:06;;;;;;;10.70;5.07;;;16.90;99.90;;;;;;5106806;28;20028;-94
2021/10/21 08:40:33;;;;;;;15.88;4.60;;;16.90;99.90;;;;;;5114438;28;20015;-93
2021/10/21 08:43:01;;;;;;;10.52;4.13;;;16.90;99.90;;;;;;5120694;28;20008;-94
2021/10/21 08:45:27;;;;;;;12.05;4.57;;;17.00;99.90;;;;;;5091279;28;20047;-95
2021/10/21 08:48:01;;;;;;;9.32;4.13;;;17.10;99.90;;;;;;5200818;23;20064;-94
2021/10/21 08:50:28;;;;;;;13.48;4.85;;;17.00;99.90;;;;;;5058859;28;20032;-89
2021/10/21 08:52:54;;;;;;;16.75;5.03;;;17.10;99.90;;;;;;5051060;28;20021;-79
2021/10/21 08:55:20;;;;;;;10.35;4.70;;;17.10;99.90;;;;;;5054560;28;20032;-85
2021/10/21 08:57:46;;;;;;;16.23;5.35;;;17.10;99.90;;;;;;5038157;28;20017;-87
2021/10/21 09:00:13;;;;;;;12.80;5.40;;;17.10;99.90;;;;;;5054430;28;20545;-84
2021/10/21 09:02:50;;;;;;;12.70;4.80;;;17.10;99.90;;;;;;5037286;28;20091;-85
2021/10/21 09:08:14;;;;;;;10.20;5.40;;;17.10;99.90;;;;;;5054671;28;20033;-84
2021/10/21 09:10:58;;;;;;;15.38;4.97;;;17.00;99.90;;;;;;5054254;28;20195;-87
2021/10/21 09:13:34;;;;;;;16.92;5.03;;;17.10;99.90;;;;;;5053909;28;20397;-89
2021/10/21 09:16:03;;;;;;;14.90;5.07;;;17.20;99.90;;;;;;5055357;28;20017;-88
2021/10/21 09:18:46;;;;;;;14.95;5.05;;;17.20;99.90;;;;;;5054912;28;20013;-81
2021/10/21 09:21:32;;;;;;;25.40;5.60;;;17.20;99.90;;;;;;5053391;28;20021;-83
2021/10/21 09:24:23;;;;;;;12.50;5.28;;;17.30;99.90;;;;;;5033441;28;20024;-83
2021/10/21 09:27:06;;;;;;;9.45;4.70;;;17.30;99.90;;;;;;5050537;28;20036;-82
2021/10/21 09:29:32;;;;;;;;;;;17.30;99.90;;;;;;5049868;28;20021;-84
2021/10/21 09:32:04;;;;;;;11.00;4.80;;;17.30;99.90;;;;;;5052843;28;19916;-81
2021/10/21 09:34:30;;;;;;;13.40;5.20;;;17.20;99.90;;;;;;5034689;28;20032;-83
2021/10/21 09:37:06;;;;;;;11.80;4.82;;;17.20;99.90;;;;;;5055334;28;20263;-82
2021/10/21 09:39:54;;;;;;;9.70;4.78;;;17.30;99.90;;;;;;5056388;28;20031;-81
2021/10/21 09:42:34;;;;;;;13.20;5.00;;;17.30;99.90;;;;;;5051657;28;20029;-79
2021/10/21 09:45:12;;;;;;;13.20;4.68;;;17.30;99.90;;;;;;5031388;28;20109;-79
2021/10/21 09:47:41;;;;;;;12.25;4.38;;;17.30;99.90;;;;;;5049344;28;20049;-79
2021/10/21 09:50:22;;;;;;;11.20;4.38;;;17.30;99.90;;;;;;5033189;28;20013;-79
2021/10/21 09:53:20;;;;;;;13.38;4.72;;;17.30;99.90;;;;;;5050383;28;20041;-80
2021/10/21 09:55:46;;;;;;;15.45;4.55;;;17.30;99.90;;;;;;5038510;28;20694;-79
2021/10/21 09:58:16;;;;;;;11.30;4.38;;;17.30;99.90;;;;;;5050420;28;20148;-79
2021/10/21 10:00:42;;;;;;;9.13;4.07;;;17.30;99.90;;;;;;5049741;28;20025;-79
2021/10/21 10:03:08;;;;;;;13.13;4.32;;;17.30;99.90;;;;;;5032760;28;20029;-80
2021/10/21 10:05:34;;;;;;;8.50;4.47;;;17.30;99.90;;;;;;5052039;28;20021;-79
2021/10/21 10:08:00;;;;;;;12.48;4.63;;;17.30;99.90;;;;;;5050871;28;20025;-79
2021/10/21 10:10:25;;;;;;;9.82;4.03;;;17.30;99.90;;;;;;5051548;28;20498;-79
2021/10/21 10:12:51;;;;;;;13.25;3.70;;;17.40;99.90;;;;;;5052379;28;20388;-80
2021/10/21 10:15:17;;;;;;;10.32;3.80;;;17.30;99.90;;;;;;5050978;28;20033;-79
2021/10/21 10:17:43;;;;;;;8.77;3.30;;;17.30;99.90;;;;;;5051074;28;20037;-80
2021/10/21 10:20:09;;;;;;;17.02;4.32;;;17.30;99.90;;;;;;5050035;28;20021;-79
2021/10/21 10:22:39;;;;;;;7.68;3.80;;;17.40;99.90;;;;;;5033856;28;20024;-78
2021/10/21 10:25:19;;;;;;;10.18;3.90;;;17.40;99.90;;;;;;5050672;28;20043;-78
2021/10/21 10:27:57;;;;;;;9.90;3.30;;;17.50;99.90;;;;;;5034158;28;20037;-79
2021/10/21 10:30:50;;;;;;;7.50;3.72;;;17.50;99.90;;;;;;5033133;28;20036;-80
2021/10/21 10:33:37;;;;;;;;;;;17.50;99.90;;;;;;5035072;28;20025;-79
2021/10/21 10:36:21;;;;;;;12.63;4.00;;;17.60;99.90;;;;;;5051106;28;19947;-79
2021/10/21 10:38:48;;;;;;;10.75;3.55;;;17.60;99.90;;;;;;5051148;28;20108;-81
2021/10/21 10:41:43;;;;;;;11.63;3.95;;;17.60;99.90;;;;;;5051292;28;20024;-79
2021/10/21 10:44:10;;;;;;;8.70;4.15;;;17.70;99.90;;;;;;5050669;28;20025;-79
2021/10/21 10:46:51;;;;;;;7.97;4.18;;;17.70;99.90;;;;;;5051199;28;20658;-79
2021/10/21 10:49:41;;;;;;;9.82;3.83;;;17.70;99.90;;;;;;5032497;28;20027;-79
2021/10/21 10:52:17;;;;;;;10.60;4.05;;;17.60;99.90;;;;;;5051382;28;20017;-80
2021/10/21 10:54:46;;;;;;;12.23;3.78;;;17.60;99.90;;;;;;5050726;28;20017;-79
2021/10/21 10:57:13;;;;;;;9.68;3.97;;;17.50;99.90;;;;;;5049539;28;20021;-81
2021/10/21 10:59:42;;;;;;;7.43;3.47;;;17.50;99.90;;;;;;5050633;28;20021;-79
2021/10/21 11:02:37;;;;;;;9.40;3.92;;;17.40;99.90;;;;;;5050309;28;20457;-79
2021/10/21 11:05:06;;;;;;;7.88;3.58;;;17.40;99.90;;;;;;5033042;28;20033;-79
2021/10/21 11:07:41;;;;;;;17.88;3.72;;;17.40;99.90;;;;;;5051522;28;20124;-79
2021/10/21 11:10:17;;;;;;;7.13;3.63;;;17.40;99.90;;;;;;5032400;28;20431;-79
2021/10/21 11:12:48;;;;;;;13.00;3.67;;;17.40;99.90;;;;;;5050976;28;20502;-80
2021/10/21 11:15:29;;;;;;;11.10;3.88;;;17.40;99.90;;;;;;5032230;28;20036;-79
2021/10/21 11:17:59;;;;;;;13.27;4.57;;;17.40;99.90;;;;;;5050842;28;20025;-77
2021/10/21 11:20:31;;;;;;;7.93;4.20;;;17.40;99.90;;;;;;5049690;28;20167;-79
2021/10/21 11:22:59;;;;;;;10.07;4.65;;;17.40;99.90;;;;;;5032637;28;20100;-78
2021/10/21 11:25:26;;;;;;;13.25;5.00;;;17.40;99.90;;;;;;5032194;28;20029;-79
2021/10/21 11:27:53;;;;;;;11.05;4.82;;;17.40;99.90;;;;;;5051351;28;20055;-80
2021/10/21 11:30:25;;;;;;;11.07;5.40;;;17.40;99.90;;;;;;5031729;28;20114;-79
2021/10/21 11:32:53;;;;;;;10.65;4.55;;;17.40;99.90;;;;;;5032827;28;20021;-79
2021/10/21 11:35:22;;;;;;;13.68;4.30;;;17.30;99.90;;;;;;5050026;28;20487;-78
2021/10/21 11:38:01;;;;;;;9.60;3.83;;;17.30;99.90;;;;;;5051500;28;20025;-78
2021/10/21 11:40:39;;;;;;;9.20;4.38;;;17.30;99.90;;;;;;5050448;28;20049;-78
2021/10/21 11:43:07;;;;;;;8.38;4.03;;;17.30;99.90;;;;;;5050369;28;20098;-81
2021/10/21 11:45:39;;;;;;;11.13;4.25;;;17.30;99.90;;;;;;5047621;28;20033;-79
2021/10/21 11:48:07;;;;;;;9.20;3.92;;;17.30;99.90;;;;;;5050437;28;20191;-79
2021/10/21 11:50:34;;;;;;;8.40;3.63;;;17.20;99.90;;;;;;5047754;28;20090;-80
2021/10/21 11:53:01;;;;;;;12.52;4.47;;;17.20;99.90;;;;;;5050519;28;20119;-80
2021/10/21 11:55:27;;;;;;;9.25;4.03;;;17.20;99.90;;;;;;5049673;28;20044;-80
2021/10/21 11:58:12;;;;;;;10.30;3.78;;;17.20;99.90;;;;;;5050818;28;20509;-79
2021/10/21 12:00:38;;;;;;;12.68;4.47;;;17.10;99.90;;;;;;5029719;28;20032;-78
2021/10/21 12:03:04;;;;;;;10.20;4.32;;;17.10;99.90;;;;;;5050135;28;20048;-79
2021/10/21 12:05:37;;;;;;;11.27;4.05;;;17.10;99.90;;;;;;5047768;28;20028;-84
2021/10/21 12:08:03;;;;;;;10.50;4.72;;;17.00;99.90;;;;;;5050170;28;20029;-85
2021/10/21 12:10:35;;;;;;;8.93;4.35;;;17.00;99.90;;;;;;5033593;28;20052;-87
2021/10/21 12:13:03;;;;;;;18.30;4.60;;;17.00;99.90;;;;;;5050943;28;20025;-83
2021/10/21 12:15:33;;;;;;;9.55;4.43;;;17.00;99.90;;;;;;5032998;28;20029;-84
2021/10/21 12:18:07;;;;;;;10.88;4.47;;;17.00;99.90;;;;;;5054519;28;20554;-83
2021/10/21 12:20:41;;;;;;;8.82;5.00;;;17.00;99.90;;;;;;5052993;28;20032;-84
2021/10/21 12:23:27;;;;;;;11.52;5.03;;;17.00;99.90;;;;;;5054763;28;20046;-86
2021/10/21 12:25:56;;;;;;;10.73;5.20;;;17.00;99.90;;;;;;5037614;28;20507;-84
2021/10/21 12:28:34;;;;;;;12.60;4.78;;;17.00;99.90;;;;;;5058483;28;20454;-82
2021/10/21 12:31:17;;;;;;;14.20;4.97;;;17.00;99.90;;;;;;5035866;28;20017;-84
2021/10/21 12:33:54;;;;;;;10.00;4.70;;;17.00;99.90;;;;;;5036123;28;20021;-83
2021/10/21 12:36:22;;;;;;;11.00;4.95;;;17.00;99.90;;;;;;5052911;28;20036;-84
2021/10/21 12:38:52;;;;;;;8.35;4.03;;;16.90;99.90;;;;;;5037212;28;20027;-84
2021/10/21 12:41:22;;;;;;;10.13;4.35;;;17.00;99.90;;;;;;5053206;28;20028;-85
2021/10/21 12:44:05;;;;;;;9.20;4.97;;;16.90;99.90;;;;;;5052750;28;20570;-84
2021/10/21 12:46:32;;;;;;;11.07;4.47;;;16.90;99.90;;;;;;5047641;28;20086;-83